Time;durP1;ratioP1;P1;durP2;ratioP2;P2;SDS_P1;SDS_P2;PMS_P1;PMS_P2;Temp;Humidity;BMP_temperature;BMP_pressure;BME280_temperature;BME280_humidity;BME280_pressure;Samples;Min_cycle;Max_cycle;Signal;HPM_P1;HPM_P2
2021/07/23 00:01:51;;;;;;;21.65;12.40;;;;;;;;;;5049524;28;20045;-58
2021/07/23 00:04:19;;;;;;;23.55;12.82;;;;;;;;;;5049172;28;20094;-58
2021/07/23 00:06:49;;;;;;;23.00;12.43;;;;;;;;;;5049987;28;20128;-58
2021/07/23 00:09:18;;;;;;;21.05;12.20;;;;;;;;;;5050190;28;20140;-58
2021/07/23 00:11:48;;;;;;;19.38;12.43;;;;;;;;;;5050527;28;20055;-58
2021/07/23 00:14:16;;;;;;;19.48;12.57;;;;;;;;;;5047216;28;20490;-57
2021/07/23 00:16:45;;;;;;;17.45;11.85;;;;;;;;;;5049865;28;20037;-58
2021/07/23 00:19:13;;;;;;;19.60;12.13;;;;;;;;;;5049190;28;20057;-57
2021/07/23 00:21:41;;;;;;;19.45;12.63;;;;;;;;;;5050652;28;20108;-59
2021/07/23 00:24:09;;;;;;;19.63;12.60;;;;;;;;;;5048514;28;20052;-58
2021/07/23 00:26:38;;;;;;;21.58;12.82;;;;;;;;;;5036686;28;20079;-58
2021/07/23 00:29:07;;;;;;;20.58;13.02;;;;;;;;;;5047152;28;20128;-58
2021/07/23 00:31:36;;;;;;;17.55;11.80;;;;;;;;;;5050001;28;20567;-58
2021/07/23 00:34:04;;;;;;;19.35;11.77;;;;;;;;;;5049591;28;20452;-58
2021/07/23 00:36:32;;;;;;;18.83;12.45;;;;;;;;;;5049583;28;20139;-58
2021/07/23 00:39:00;;;;;;;19.58;12.30;;;;;;;;;;5050012;28;20052;-58
2021/07/23 00:41:29;;;;;;;19.00;12.10;;;;;;;;;;5050494;28;20136;-57
2021/07/23 00:43:57;;;;;;;19.85;12.27;;;;;;;;;;5045449;28;20045;-59
2021/07/23 00:46:30;;;;;;;18.77;12.40;;;;;;;;;;5050093;28;20049;-58
2021/07/23 00:48:59;;;;;;;19.00;12.75;;;;;;;;;;5047964;28;20148;-58
2021/07/23 00:51:28;;;;;;;16.88;11.95;;;;;;;;;;5048673;28;20128;-58
2021/07/23 00:53:57;;;;;;;19.42;13.13;;;;;;;;;;5048934;28;20135;-58
2021/07/23 00:56:26;;;;;;;18.88;12.23;;;;;;;;;;5049455;28;20041;-57
2021/07/23 00:58:55;;;;;;;20.73;12.75;;;;;;;;;;5049080;28;20439;-58
2021/07/23 01:01:24;;;;;;;21.05;11.70;;;;;;;;;;5049698;28;20544;-57
2021/07/23 01:03:56;;;;;;;17.75;12.10;;;;;;;;;;5046443;23;20145;-87
2021/07/23 01:06:25;;;;;;;20.30;12.07;;;;;;;;;;5037265;28;20160;-87
2021/07/23 01:08:54;;;;;;;19.60;11.93;;;;;;;;;;5014465;28;20119;-87
2021/07/23 01:11:23;;;;;;;20.55;12.38;;;;;;;;;;5034142;28;20128;-88
2021/07/23 01:13:51;;;;;;;19.75;13.15;;;;;;;;;;5037874;28;20049;-87
2021/07/23 01:16:22;;;;;;;22.30;12.07;;;;;;;;;;5036998;28;20060;-89
2021/07/23 01:18:53;;;;;;;22.48;13.05;;;;;;;;;;5037203;28;20046;-88
2021/07/23 01:21:24;;;;;;;19.95;12.70;;;;;;;;;;5037296;28;20132;-87
2021/07/23 01:23:54;;;;;;;19.42;12.57;;;;;;;;;;5038287;28;20046;-87
2021/07/23 01:26:24;;;;;;;19.80;12.50;;;;;;;;;;5037864;28;20061;-87
2021/07/23 01:28:53;;;;;;;20.85;12.18;;;;;;;;;;5037179;28;20085;-88
2021/07/23 01:31:25;;;;;;;20.48;12.45;;;;;;;;;;5020994;28;20128;-88
2021/07/23 01:33:54;;;;;;;18.40;12.68;;;;;;;;;;5034934;28;20045;-88
2021/07/23 01:36:26;;;;;;;17.33;12.23;;;;;;;;;;5038097;28;20077;-88
2021/07/23 01:38:58;;;;;;;18.23;12.07;;;;;;;;;;5038192;28;20053;-87
2021/07/23 01:41:29;;;;;;;17.88;11.80;;;;;;;;;;5023671;28;20054;-87
2021/07/23 01:44:06;;;;;;;21.35;12.75;;;;;;;;;;5038197;28;20071;-88
2021/07/23 01:46:36;;;;;;;17.88;12.48;;;;;;;;;;5020791;28;20610;-87
2021/07/23 01:49:06;;;;;;;19.30;12.23;;;;;;;;;;5034391;28;20049;-87
2021/07/23 01:51:35;;;;;;;20.30;12.10;;;;;;;;;;5036119;28;20045;-87
2021/07/23 01:54:12;;;;;;;21.88;12.90;;;;;;;;;;5019509;28;20057;-87
2021/07/23 01:56:42;;;;;;;19.10;11.95;;;;;;;;;;5042200;28;20049;-88
2021/07/23 01:59:10;;;;;;;23.58;12.95;;;;;;;;;;5036678;28;20143;-87
2021/07/23 02:01:38;;;;;;;17.60;12.05;;;;;;;;;;5036789;28;20053;-87
2021/07/23 02:04:09;;;;;;;19.55;12.55;;;;;;;;;;5020043;28;20053;-87
2021/07/23 02:06:40;;;;;;;18.73;12.88;;;;;;;;;;5016777;28;20053;-87
2021/07/23 02:09:09;;;;;;;19.27;12.52;;;;;;;;;;5016472;28;20081;-88
2021/07/23 02:11:39;;;;;;;23.25;13.35;;;;;;;;;;5018837;28;20118;-87
2021/07/23 02:16:54;;;;;;;19.25;13.45;;;;;;;;;;5019781;28;20117;-87
2021/07/23 02:19:23;;;;;;;21.40;13.38;;;;;;;;;;5024221;28;20124;-88
2021/07/23 02:21:54;;;;;;;21.10;12.82;;;;;;;;;;5007346;28;20081;-88
2021/07/23 02:24:24;;;;;;;19.05;12.93;;;;;;;;;;5016620;28;20129;-87
2021/07/23 02:26:55;;;;;;;22.40;13.70;;;;;;;;;;5018321;28;20066;-88
2021/07/23 02:29:23;;;;;;;18.83;13.20;;;;;;;;;;5016811;28;20054;-88
2021/07/23 02:31:52;;;;;;;20.60;12.48;;;;;;;;;;5016268;28;20061;-88
2021/07/23 02:34:21;;;;;;;18.77;11.48;;;;;;;;;;5018014;28;20050;-88
2021/07/23 02:36:52;;;;;;;18.90;12.68;;;;;;;;;;5017201;28;20464;-88
2021/07/23 02:39:22;;;;;;;23.98;13.20;;;;;;;;;;5017064;28;20056;-88
2021/07/23 02:41:51;;;;;;;20.38;12.68;;;;;;;;;;5019059;28;20046;-87
2021/07/23 02:44:21;;;;;;;19.48;12.45;;;;;;;;;;5009853;28;20082;-87
2021/07/23 02:46:50;;;;;;;22.85;12.30;;;;;;;;;;5012876;28;20474;-87
2021/07/23 02:49:18;;;;;;;19.48;13.18;;;;;;;;;;5016571;28;20061;-88
2021/07/23 02:51:49;;;;;;;17.98;12.63;;;;;;;;;;5013421;28;20057;-88
2021/07/23 02:54:17;;;;;;;21.42;12.32;;;;;;;;;;5017600;28;20077;-88
2021/07/23 02:56:46;;;;;;;25.17;13.50;;;;;;;;;;5015222;28;20300;-88
2021/07/23 02:59:14;;;;;;;27.00;15.48;;;;;;;;;;5016531;28;20084;-88
2021/07/23 03:01:46;;;;;;;28.95;15.32;;;;;;;;;;5020503;28;20130;-88
2021/07/23 03:04:22;;;;;;;32.00;16.00;;;;;;;;;;5015719;28;20084;-88
2021/07/23 03:06:51;;;;;;;24.27;14.57;;;;;;;;;;5015324;28;20128;-88
2021/07/23 03:09:20;;;;;;;24.90;14.13;;;;;;;;;;5016036;28;20486;-88
2021/07/23 03:11:49;;;;;;;21.52;13.80;;;;;;;;;;5013636;28;20042;-88
2021/07/23 03:14:18;;;;;;;22.95;14.18;;;;;;;;;;5017334;28;20053;-87
2021/07/23 03:16:53;;;;;;;19.15;12.60;;;;;;;;;;5013795;28;20046;-88
2021/07/23 03:19:23;;;;;;;20.95;13.45;;;;;;;;;;5016685;28;20042;-87
2021/07/23 03:21:54;;;;;;;23.05;12.75;;;;;;;;;;5019638;28;20085;-88
2021/07/23 03:24:30;;;;;;;21.65;13.45;;;;;;;;;;5015408;28;20041;-88
2021/07/23 03:26:58;;;;;;;17.60;12.93;;;;;;;;;;5015127;28;20077;-88
2021/07/23 03:29:27;;;;;;;20.33;13.45;;;;;;;;;;5013867;28;20053;-88
2021/07/23 03:31:57;;;;;;;24.27;13.40;;;;;;;;;;5012849;28;20067;-88
2021/07/23 03:34:26;;;;;;;21.73;13.30;;;;;;;;;;5010921;28;20050;-88
2021/07/23 03:36:54;;;;;;;20.75;13.13;;;;;;;;;;5012308;28;20053;-88
2021/07/23 03:39:23;;;;;;;21.13;13.27;;;;;;;;;;5011044;28;20153;-88
2021/07/23 03:41:54;;;;;;;22.02;13.88;;;;;;;;;;4960710;28;20073;-88
2021/07/23 03:44:39;;;;;;;23.08;12.77;;;;;;;;;;1179076;28;10022792;-88
2021/07/23 03:47:09;;;;;;;21.92;13.48;;;;;;;;;;4670485;28;10001146;-88
2021/07/23 03:49:37;;;;;;;20.85;12.82;;;;;;;;;;5016598;28;20050;-87
2021/07/23 03:52:06;;;;;;;23.88;14.18;;;;;;;;;;5017728;28;20085;-88
2021/07/23 03:54:36;;;;;;;23.45;13.60;;;;;;;;;;5016551;28;20080;-87
2021/07/23 03:57:06;;;;;;;24.73;13.52;;;;;;;;;;5014823;28;20061;-88
2021/07/23 03:59:37;;;;;;;21.30;13.57;;;;;;;;;;5019746;28;20042;-88
2021/07/23 04:02:06;;;;;;;21.92;14.00;;;;;;;;;;5014657;28;20112;-88
2021/07/23 04:04:38;;;;;;;20.33;12.52;;;;;;;;;;5015366;28;20052;-87
2021/07/23 04:07:08;;;;;;;21.52;13.32;;;;;;;;;;5016522;28;20057;-87
2021/07/23 04:09:37;;;;;;;21.00;14.05;;;;;;;;;;5007306;28;20056;-87
2021/07/23 04:12:06;;;;;;;21.77;13.52;;;;;;;;;;5014511;28;20387;-87
2021/07/23 04:14:37;;;;;;;20.73;13.70;;;;;;;;;;5013656;28;20549;-87
2021/07/23 04:17:05;;;;;;;21.00;14.10;;;;;;;;;;5009524;28;20050;-87
2021/07/23 04:19:35;;;;;;;23.02;12.90;;;;;;;;;;5012308;28;20069;-87
2021/07/23 04:22:06;;;;;;;19.20;12.75;;;;;;;;;;5011727;28;20049;-86
2021/07/23 04:24:37;;;;;;;20.80;13.07;;;;;;;;;;5012434;28;20512;-86
2021/07/23 04:27:05;;;;;;;21.60;14.75;;;;;;;;;;5014452;28;20059;-87
2021/07/23 04:29:33;;;;;;;22.42;13.43;;;;;;;;;;5000538;28;20050;-87
2021/07/23 04:32:02;;;;;;;24.23;14.43;;;;;;;;;;5007769;28;20490;-87
2021/07/23 04:34:31;;;;;;;25.27;13.63;;;;;;;;;;5005975;28;20108;-87
2021/07/23 04:37:01;;;;;;;23.05;14.30;;;;;;;;;;5009509;28;20233;-87
2021/07/23 04:39:30;;;;;;;19.90;13.13;;;;;;;;;;5009682;28;20060;-88
2021/07/23 04:41:58;;;;;;;21.98;14.10;;;;;;;;;;5004857;28;20050;-88
2021/07/23 04:44:33;;;;;;;21.67;13.35;;;;;;;;;;4995039;28;20041;-87
2021/07/23 04:47:03;;;;;;;22.58;13.30;;;;;;;;;;5011018;28;20103;-88
2021/07/23 04:49:32;;;;;;;25.33;14.25;;;;;;;;;;5009798;28;20049;-88
2021/07/23 04:52:02;;;;;;;24.77;14.63;;;;;;;;;;5008831;28;20052;-87
2021/07/23 04:54:31;;;;;;;22.80;14.63;;;;;;;;;;5009969;28;20116;-87
2021/07/23 04:57:02;;;;;;;26.10;14.35;;;;;;;;;;5011762;28;20533;-87
2021/07/23 04:59:31;;;;;;;23.77;13.75;;;;;;;;;;5007952;28;20138;-87
2021/07/23 05:01:59;;;;;;;24.25;14.57;;;;;;;;;;5010958;28;20084;-90
2021/07/23 05:04:28;;;;;;;22.98;14.07;;;;;;;;;;5009656;28;20058;-88
2021/07/23 05:06:56;;;;;;;23.33;13.65;;;;;;;;;;5011995;28;20517;-88
2021/07/23 05:09:26;;;;;;;24.52;13.90;;;;;;;;;;5009363;28;20112;-87
2021/07/23 05:11:54;;;;;;;24.30;15.07;;;;;;;;;;5012324;28;20141;-88
2021/07/23 05:14:23;;;;;;;30.77;15.95;;;;;;;;;;5011682;28;20046;-87
2021/07/23 05:16:52;;;;;;;28.15;15.68;;;;;;;;;;5008540;28;20046;-87
2021/07/23 05:19:21;;;;;;;24.33;14.27;;;;;;;;;;5010756;28;20498;-87
2021/07/23 05:21:50;;;;;;;22.67;14.40;;;;;;;;;;5005975;28;20050;-87
2021/07/23 05:24:19;;;;;;;26.67;15.18;;;;;;;;;;5016071;28;20050;-87
2021/07/23 05:26:54;;;;;;;22.17;13.63;;;;;;;;;;5012561;28;20049;-87
2021/07/23 05:29:23;;;;;;;22.55;13.73;;;;;;;;;;5010734;28;20152;-87
2021/07/23 05:31:54;;;;;;;22.05;14.52;;;;;;;;;;5010077;28;20042;-86
2021/07/23 05:34:23;;;;;;;24.20;14.07;;;;;;;;;;5009875;28;20057;-86
2021/07/23 05:36:52;;;;;;;20.77;14.13;;;;;;;;;;5007479;28;20046;-86
2021/07/23 05:39:20;;;;;;;23.75;14.15;;;;;;;;;;5003110;28;20057;-86
2021/07/23 05:41:50;;;;;;;23.13;13.57;;;;;;;;;;5008362;28;20046;-86
2021/07/23 05:44:18;;;;;;;25.80;14.73;;;;;;;;;;5007152;28;20446;-87
2021/07/23 05:46:46;;;;;;;24.13;13.73;;;;;;;;;;5009594;28;20473;-87
2021/07/23 05:49:15;;;;;;;23.65;14.35;;;;;;;;;;5007396;28;20108;-87
2021/07/23 05:51:43;;;;;;;24.08;14.30;;;;;;;;;;5008904;28;20110;-87
2021/07/23 05:54:12;;;;;;;26.63;14.50;;;;;;;;;;5008952;28;20101;-87
2021/07/23 05:56:40;;;;;;;23.58;14.27;;;;;;;;;;5008594;28;20505;-87
2021/07/23 05:59:11;;;;;;;26.92;15.15;;;;;;;;;;5001906;28;20134;-87
2021/07/23 06:01:39;;;;;;;31.55;17.77;;;;;;;;;;5010972;28;20080;-86
2021/07/23 06:04:08;;;;;;;31.00;18.35;;;;;;;;;;5011482;28;20061;-87
2021/07/23 06:06:37;;;;;;;28.85;16.55;;;;;;;;;;5011784;28;20038;-86
2021/07/23 06:09:08;;;;;;;27.95;15.68;;;;;;;;;;5012090;28;20067;-86
2021/07/23 06:11:40;;;;;;;27.73;16.92;;;;;;;;;;5010276;28;20084;-87
2021/07/23 06:14:08;;;;;;;27.73;16.58;;;;;;;;;;4998739;28;20083;-87
2021/07/23 06:16:41;;;;;;;29.23;16.88;;;;;;;;;;4986812;28;20098;-87
2021/07/23 06:19:10;;;;;;;26.90;16.27;;;;;;;;;;4983886;28;20125;-86
2021/07/23 06:21:38;;;;;;;26.15;15.82;;;;;;;;;;4988243;28;20584;-86
2021/07/23 06:24:07;;;;;;;27.63;15.07;;;;;;;;;;4987718;28;20475;-86
2021/07/23 06:26:38;;;;;;;28.80;15.43;;;;;;;;;;4989262;28;20058;-85
2021/07/23 06:29:06;;;;;;;29.15;16.40;;;;;;;;;;4987131;28;20154;-87
2021/07/23 06:31:35;;;;;;;30.77;15.77;;;;;;;;;;4987191;28;20054;-86
2021/07/23 06:34:05;;;;;;;32.25;17.00;;;;;;;;;;4983816;28;20133;-87
2021/07/23 06:36:33;;;;;;;26.75;16.35;;;;;;;;;;4986859;28;20054;-86
2021/07/23 06:39:02;;;;;;;25.85;15.63;;;;;;;;;;4982576;28;20510;-86
2021/07/23 06:41:31;;;;;;;29.20;16.55;;;;;;;;;;4997275;28;20081;-86
2021/07/23 06:43:59;;;;;;;26.17;16.35;;;;;;;;;;5002289;28;20076;-86
2021/07/23 06:46:27;;;;;;;24.52;15.05;;;;;;;;;;5003090;28;20668;-86
2021/07/23 06:48:56;;;;;;;30.38;16.30;;;;;;;;;;5006278;28;20109;-87
2021/07/23 06:51:26;;;;;;;29.75;15.88;;;;;;;;;;5010302;28;20054;-87
2021/07/23 06:53:55;;;;;;;32.80;17.23;;;;;;;;;;5005458;28;20111;-88
2021/07/23 06:56:24;;;;;;;30.83;16.67;;;;;;;;;;5009382;28;20041;-86
2021/07/23 06:58:52;;;;;;;26.50;15.80;;;;;;;;;;5010258;28;20050;-86
2021/07/23 07:01:21;;;;;;;28.70;16.02;;;;;;;;;;5006463;28;20121;-87
2021/07/23 07:03:49;;;;;;;29.42;16.58;;;;;;;;;;5003542;28;20054;-87
2021/07/23 07:06:17;;;;;;;26.40;15.55;;;;;;;;;;5009371;28;20517;-86
2021/07/23 07:08:49;;;;;;;25.55;15.68;;;;;;;;;;5010787;28;20054;-87
2021/07/23 07:11:18;;;;;;;26.23;15.88;;;;;;;;;;5010892;28;20085;-87
2021/07/23 07:13:47;;;;;;;27.52;16.50;;;;;;;;;;5009973;28;20390;-88
2021/07/23 07:16:19;;;;;;;27.25;14.98;;;;;;;;;;5001226;28;20061;-86
2021/07/23 07:18:47;;;;;;;28.55;15.88;;;;;;;;;;5010422;28;20152;-86
2021/07/23 07:21:16;;;;;;;28.40;15.82;;;;;;;;;;5009375;28;20540;-88
2021/07/23 07:23:45;;;;;;;30.98;18.15;;;;;;;;;;5010533;28;20053;-87
2021/07/23 07:26:15;;;;;;;27.40;16.15;;;;;;;;;;5009910;28;20134;-87
2021/07/23 07:28:43;;;;;;;28.20;16.13;;;;;;;;;;5012307;28;20042;-86
2021/07/23 07:31:15;;;;;;;30.85;15.35;;;;;;;;;;5005229;28;20057;-86
2021/07/23 07:33:44;;;;;;;27.40;15.88;;;;;;;;;;5008682;28;20050;-86
2021/07/23 07:36:17;;;;;;;23.95;14.32;;;;;;;;;;5009105;28;20073;-86
2021/07/23 07:38:45;;;;;;;22.60;14.98;;;;;;;;;;5008846;28;20140;-85
2021/07/23 07:41:18;;;;;;;26.05;15.20;;;;;;;;;;5009066;28;20139;-85
2021/07/23 07:43:46;;;;;;;25.38;14.95;;;;;;;;;;5003416;28;20061;-85
2021/07/23 07:46:15;;;;;;;23.98;14.98;;;;;;;;;;5007817;28;20112;-86
2021/07/23 07:48:43;;;;;;;31.88;14.77;;;;;;;;;;5009054;28;20161;-87
2021/07/23 07:51:12;;;;;;;26.83;15.10;;;;;;;;;;5008891;28;20085;-87
2021/07/23 07:53:43;;;;;;;28.35;15.85;;;;;;;;;;5009070;28;20041;-87
2021/07/23 07:56:12;;;;;;;26.38;14.27;;;;;;;;;;5003184;28;20208;-87
2021/07/23 07:58:42;;;;;;;24.83;14.35;;;;;;;;;;5013414;28;20055;-87
2021/07/23 08:01:14;;;;;;;25.55;15.10;;;;;;;;;;5015630;28;20049;-86
2021/07/23 08:03:43;;;;;;;27.05;14.13;;;;;;;;;;5007896;28;20203;-86
2021/07/23 08:09:08;;;;;;;28.05;15.32;;;;;;;;;;5004366;28;20057;-86
2021/07/23 08:11:38;;;;;;;22.30;14.40;;;;;;;;;;5009371;28;20385;-86
2021/07/23 08:14:08;;;;;;;25.10;13.60;;;;;;;;;;5009268;28;20219;-86
2021/07/23 08:16:38;;;;;;;27.88;14.40;;;;;;;;;;5007012;28;20049;-87
2021/07/23 08:19:09;;;;;;;25.55;15.02;;;;;;;;;;4991639;28;20058;-86
2021/07/23 08:21:38;;;;;;;28.80;15.45;;;;;;;;;;5010738;28;20432;-87
2021/07/23 08:24:07;;;;;;;23.88;14.00;;;;;;;;;;5008945;28;20230;-87
2021/07/23 08:26:36;;;;;;;24.83;13.95;;;;;;;;;;5008227;28;20057;-86
2021/07/23 08:29:06;;;;;;;21.50;12.98;;;;;;;;;;4996153;28;20493;-86
2021/07/23 08:31:36;;;;;;;22.27;14.57;;;;;;;;;;5009068;28;20061;-87
2021/07/23 08:34:06;;;;;;;24.20;14.73;;;;;;;;;;5007983;28;20464;-86
2021/07/23 08:36:35;;;;;;;23.30;13.85;;;;;;;;;;5004074;28;20057;-87
2021/07/23 08:39:03;;;;;;;29.50;14.93;;;;;;;;;;5003204;28;20054;-87
2021/07/23 08:41:35;;;;;;;25.27;13.68;;;;;;;;;;5008874;28;20053;-86
2021/07/23 08:44:04;;;;;;;25.88;15.35;;;;;;;;;;5008810;28;20444;-87
2021/07/23 08:46:33;;;;;;;28.95;15.10;;;;;;;;;;5007694;28;20104;-86
2021/07/23 08:49:03;;;;;;;19.25;13.02;;;;;;;;;;5003447;28;20517;-86
2021/07/23 08:51:32;;;;;;;28.40;12.95;;;;;;;;;;5012206;28;20057;-88
2021/07/23 08:54:01;;;;;;;22.08;12.90;;;;;;;;;;5007287;28;20096;-87
2021/07/23 08:56:30;;;;;;;24.55;14.18;;;;;;;;;;5008808;28;20049;-87
2021/07/23 08:58:58;;;;;;;25.50;13.43;;;;;;;;;;5008832;28;20042;-87
2021/07/23 09:01:27;;;;;;;25.60;13.00;;;;;;;;;;5009382;28;20121;-87
2021/07/23 09:03:57;;;;;;;23.20;13.73;;;;;;;;;;5007204;28;20532;-86
2021/07/23 09:06:28;;;;;;;19.02;12.20;;;;;;;;;;5007959;28;20141;-87
2021/07/23 09:08:59;;;;;;;20.13;13.18;;;;;;;;;;5006489;28;20111;-86
2021/07/23 09:11:28;;;;;;;19.25;12.30;;;;;;;;;;5003182;28;20148;-86
2021/07/23 09:14:11;;;;;;;21.77;13.85;;;;;;;;;;5000481;28;20718;-86
2021/07/23 09:16:40;;;;;;;21.88;13.88;;;;;;;;;;5001307;28;20104;-88
2021/07/23 09:19:09;;;;;;;18.98;11.90;;;;;;;;;;5002266;28;20064;-87
2021/07/23 09:21:41;;;;;;;20.77;12.15;;;;;;;;;;4996125;28;20053;-88
2021/07/23 09:24:11;;;;;;;19.73;12.80;;;;;;;;;;4996851;28;20093;-90
2021/07/23 09:26:41;;;;;;;30.67;12.95;;;;;;;;;;5004021;28;20057;-86
2021/07/23 09:29:10;;;;;;;17.52;10.95;;;;;;;;;;5004540;28;20509;-88
2021/07/23 09:31:40;;;;;;;22.35;12.65;;;;;;;;;;5006289;28;20576;-87
2021/07/23 09:34:19;;;;;;;19.80;11.13;;;;;;;;;;5008099;28;20140;-86
2021/07/23 09:37:07;;;;;;;19.10;11.57;;;;;;;;;;4995103;28;20058;-86
2021/07/23 09:39:57;;;;;;;18.55;11.50;;;;;;;;;;4998713;28;20045;-87
2021/07/23 09:42:26;;;;;;;19.25;12.10;;;;;;;;;;5004849;28;20066;-88
2021/07/23 09:45:01;;;;;;;19.33;11.65;;;;;;;;;;5000969;28;20092;-88
2021/07/23 09:47:29;;;;;;;17.77;11.10;;;;;;;;;;4999740;28;20077;-88
2021/07/23 09:49:58;;;;;;;18.48;11.80;;;;;;;;;;5009924;28;20062;-86
2021/07/23 09:52:31;;;;;;;19.42;11.93;;;;;;;;;;5011215;28;20057;-88
2021/07/23 09:55:00;;;;;;;18.38;11.32;;;;;;;;;;5010058;28;20069;-88
2021/07/23 09:57:30;;;;;;;16.65;11.38;;;;;;;;;;4993244;28;20062;-90
2021/07/23 10:00:16;;;;;;;16.42;10.70;;;;;;;;;;5004192;28;20061;-90
2021/07/23 10:02:47;;;;;;;16.92;12.32;;;;;;;;;;5014274;28;20057;-90
2021/07/23 10:05:30;;;;;;;17.52;11.73;;;;;;;;;;5006445;28;20054;-90
2021/07/23 10:08:05;;;;;;;18.13;11.63;;;;;;;;;;5005737;28;20050;-89
2021/07/23 10:10:37;;;;;;;17.55;11.10;;;;;;;;;;5000575;28;20492;-89
2021/07/23 10:13:13;;;;;;;17.50;11.18;;;;;;;;;;5009444;28;20050;-90
2021/07/23 10:15:41;;;;;;;22.93;12.03;;;;;;;;;;5013947;28;20077;-87
2021/07/23 10:18:11;;;;;;;25.55;11.18;;;;;;;;;;5012905;28;20096;-89
2021/07/23 10:20:40;;;;;;;17.75;11.27;;;;;;;;;;5008722;28;20046;-89
2021/07/23 10:23:13;;;;;;;20.38;11.75;;;;;;;;;;5011668;28;20405;-89
2021/07/23 10:26:04;;;;;;;19.08;10.65;;;;;;;;;;5007561;28;20080;-91
2021/07/23 10:29:01;;;;;;;15.00;10.43;;;;;;;;;;5009731;28;20324;-88
2021/07/23 10:31:47;;;;;;;15.63;10.60;;;;;;;;;;5011982;28;20061;-90
2021/07/23 10:34:31;;;;;;;18.23;11.68;;;;;;;;;;5008761;28;20054;-87
2021/07/23 10:37:00;;;;;;;16.83;11.00;;;;;;;;;;5004227;28;20451;-88
2021/07/23 10:39:31;;;;;;;17.48;10.75;;;;;;;;;;5010493;28;20490;-89
2021/07/23 10:42:34;;;;;;;16.20;10.23;;;;;;;;;;5013195;28;20478;-90
2021/07/23 10:45:04;;;;;;;16.85;10.50;;;;;;;;;;5010765;28;20045;-91
2021/07/23 10:47:52;;;;;;;16.65;11.07;;;;;;;;;;5012512;28;20041;-89
2021/07/23 10:50:39;;;;;;;16.70;10.68;;;;;;;;;;5010300;28;20279;-87
2021/07/23 10:53:27;;;;;;;17.27;11.18;;;;;;;;;;5010029;28;20054;-87
2021/07/23 10:56:07;;;;;;;15.20;10.00;;;;;;;;;;5013114;28;20106;-88
2021/07/23 10:58:36;;;;;;;16.63;10.45;;;;;;;;;;5013187;28;20134;-92
2021/07/23 11:01:05;;;;;;;14.43;10.60;;;;;;;;;;5012371;28;20050;-88
2021/07/23 11:03:58;;;;;;;14.25;10.48;;;;;;;;;;5004986;28;20056;-90
2021/07/23 11:12:42;;;;;;;15.18;10.73;;;;;;;;;;4994750;28;20137;-92
2021/07/23 11:15:13;;;;;;;19.83;10.90;;;;;;;;;;4994840;28;20054;-91
2021/07/23 11:17:57;;;;;;;15.90;11.13;;;;;;;;;;4993530;28;20085;-93
2021/07/23 11:20:37;;;;;;;19.08;10.48;;;;;;;;;;4990752;28;20050;-88
2021/07/23 11:23:07;;;;;;;15.48;10.93;;;;;;;;;;4983348;28;20057;-91
2021/07/23 11:25:41;;;;;;;17.33;11.05;;;;;;;;;;4975265;28;20063;-90
2021/07/23 11:28:15;;;;;;;15.43;10.52;;;;;;;;;;4994346;28;20457;-90
2021/07/23 11:30:46;;;;;;;16.50;10.70;;;;;;;;;;4992451;28;20078;-91
2021/07/23 11:36:06;;;;;;;18.23;10.13;;;;;;;;;;4978289;28;20054;-93
2021/07/23 11:44:23;;;;;;;16.33;10.25;;;;;;;;;;4976066;28;20059;-92
2021/07/23 11:46:51;;;;;;;18.85;10.70;;;;;;;;;;4979740;28;20058;-92
2021/07/23 11:52:21;;;;;;;17.95;10.60;;;;;;;;;;4982786;28;20089;-91
2021/07/23 11:54:56;;;;;;;14.57;10.45;;;;;;;;;;4991741;28;20055;-89
2021/07/23 11:57:25;;;;;;;16.08;10.00;;;;;;;;;;4988756;28;20070;-92
2021/07/23 11:59:59;;;;;;;17.00;10.32;;;;;;;;;;4991884;28;20054;-91
2021/07/23 12:02:30;;;;;;;15.43;9.52;;;;;;;;;;4980024;28;20058;-92
2021/07/23 12:05:14;;;;;;;15.63;10.15;;;;;;;;;;5009981;28;20046;-91
2021/07/23 12:08:05;;;;;;;13.40;9.80;;;;;;;;;;5014495;28;20073;-92
2021/07/23 12:10:36;;;;;;;16.00;10.18;;;;;;;;;;5022700;28;20115;-92
2021/07/23 12:13:06;;;;;;;18.60;10.88;;;;;;;;;;5000898;28;20129;-92
2021/07/23 12:15:43;;;;;;;18.77;10.40;;;;;;;;;;5017878;28;20057;-93
2021/07/23 12:18:20;;;;;;;19.10;10.50;;;;;;;;;;5014133;28;20050;-91
2021/07/23 12:21:09;;;;;;;17.13;10.18;;;;;;;;;;5004465;28;20057;-92
2021/07/23 12:23:46;;;;;;;16.40;10.05;;;;;;;;;;5001676;28;20053;-92
2021/07/23 12:26:27;;;;;;;16.70;10.82;;;;;;;;;;5012295;28;20046;-91
2021/07/23 12:28:57;;;;;;;16.25;10.43;;;;;;;;;;5041022;28;20087;-91
2021/07/23 12:31:28;;;;;;;20.27;11.10;;;;;;;;;;5026211;28;20064;-93
2021/07/23 12:34:05;;;;;;;13.85;10.30;;;;;;;;;;5019003;28;20046;-93
2021/07/23 12:36:50;;;;;;;16.48;11.02;;;;;;;;;;4997457;28;20085;-92
2021/07/23 12:39:22;;;;;;;;;;;;;;;;;;5012928;28;20100;-93
2021/07/23 12:41:53;;;;;;;14.95;10.30;;;;;;;;;;5019487;28;19960;-92
2021/07/23 12:44:22;;;;;;;16.80;10.73;;;;;;;;;;5013142;28;20074;-93
2021/07/23 12:47:01;;;;;;;12.20;9.40;;;;;;;;;;5011180;28;20078;-92
2021/07/23 12:49:44;;;;;;;14.63;10.10;;;;;;;;;;5012627;28;20084;-92
2021/07/23 12:52:14;;;;;;;16.63;10.57;;;;;;;;;;5008146;28;20482;-91
2021/07/23 12:54:44;;;;;;;17.48;10.43;;;;;;;;;;5010280;28;20110;-92
2021/07/23 12:57:19;;;;;;;17.33;9.88;;;;;;;;;;5004628;28;20061;-93
2021/07/23 12:59:50;;;;;;;16.60;10.20;;;;;;;;;;5009904;28;20055;-91
2021/07/23 13:02:21;;;;;;;18.98;10.50;;;;;;;;;;5003790;28;20100;-93
2021/07/23 13:05:03;;;;;;;16.80;10.88;;;;;;;;;;5007451;28;20422;-91
2021/07/23 13:07:32;;;;;;;15.10;10.40;;;;;;;;;;5020973;28;20057;-90
2021/07/23 13:10:01;;;;;;;16.90;10.35;;;;;;;;;;5010134;28;20050;-90
2021/07/23 13:12:30;;;;;;;18.05;11.00;;;;;;;;;;5014612;28;20041;-90
2021/07/23 13:14:58;;;;;;;18.80;11.35;;;;;;;;;;5016569;28;20082;-92
2021/07/23 13:17:31;;;;;;;18.95;10.23;;;;;;;;;;5033425;28;20053;-91
2021/07/23 13:20:01;;;;;;;15.27;10.65;;;;;;;;;;5016153;28;20045;-90
2021/07/23 13:22:32;;;;;;;14.35;10.48;;;;;;;;;;5013928;28;20045;-89
2021/07/23 13:25:09;;;;;;;13.73;10.27;;;;;;;;;;5012199;28;20046;-88
2021/07/23 13:27:42;;;;;;;17.73;11.10;;;;;;;;;;5007680;28;20054;-87
2021/07/23 13:30:12;;;;;;;15.00;10.18;;;;;;;;;;5014497;28;20050;-87
2021/07/23 13:35:32;;;;;;;15.60;10.18;;;;;;;;;;5004092;28;20421;-89
2021/07/23 13:38:19;;;;;;;15.77;10.45;;;;;;;;;;5004063;28;20062;-88
2021/07/23 13:40:50;;;;;;;20.77;11.27;;;;;;;;;;4999098;28;20413;-88
2021/07/23 13:43:32;;;;;;;;;;;;;;;;;;5016716;28;20108;-88
2021/07/23 13:46:16;;;;;;;15.20;9.98;;;;;;;;;;5019662;28;19921;-88
2021/07/23 13:49:00;;;;;;;14.88;10.38;;;;;;;;;;5016510;28;20054;-87
2021/07/23 13:51:28;;;;;;;14.73;10.07;;;;;;;;;;5015754;28;20112;-87
2021/07/23 13:53:58;;;;;;;16.48;10.48;;;;;;;;;;5017133;28;20066;-88
2021/07/23 13:56:27;;;;;;;16.25;10.68;;;;;;;;;;5014439;28;20108;-88
2021/07/23 13:58:58;;;;;;;15.05;10.38;;;;;;;;;;5015519;28;20129;-88
2021/07/23 14:01:27;;;;;;;17.40;10.10;;;;;;;;;;5010369;28;20100;-89
2021/07/23 14:03:56;;;;;;;16.77;10.77;;;;;;;;;;5013701;28;20468;-90
2021/07/23 14:06:26;;;;;;;14.77;10.55;;;;;;;;;;5015025;28;20050;-88
2021/07/23 14:08:55;;;;;;;15.77;11.05;;;;;;;;;;5009418;28;20060;-89
2021/07/23 14:11:26;;;;;;;15.65;11.05;;;;;;;;;;5008021;28;20054;-87
2021/07/23 14:13:55;;;;;;;17.10;10.52;;;;;;;;;;5012197;28;20050;-89
2021/07/23 14:16:27;;;;;;;17.58;10.45;;;;;;;;;;5013536;28;20057;-89
2021/07/23 14:18:56;;;;;;;16.05;10.18;;;;;;;;;;5015193;28;20053;-87
2021/07/23 14:21:27;;;;;;;16.45;10.90;;;;;;;;;;5010673;28;20046;-87
2021/07/23 14:23:55;;;;;;;15.88;10.60;;;;;;;;;;5010475;28;20487;-87
2021/07/23 14:26:24;;;;;;;18.30;11.55;;;;;;;;;;5015626;28;20053;-87
2021/07/23 14:28:52;;;;;;;15.52;10.05;;;;;;;;;;5005338;28;20144;-89
2021/07/23 14:31:21;;;;;;;17.98;11.07;;;;;;;;;;4996992;28;20323;-90
2021/07/23 14:33:50;;;;;;;16.38;10.23;;;;;;;;;;4998178;28;20058;-88
2021/07/23 14:36:19;;;;;;;15.98;9.90;;;;;;;;;;5010724;28;20077;-89
2021/07/23 14:38:51;;;;;;;17.55;10.02;;;;;;;;;;5011465;28;20049;-87
2021/07/23 14:41:34;;;;;;;15.45;10.43;;;;;;;;;;5006982;28;20043;-89
2021/07/23 14:44:03;;;;;;;14.73;9.90;;;;;;;;;;5012178;28;20601;-88
2021/07/23 14:46:32;;;;;;;15.90;10.55;;;;;;;;;;5012098;28;20049;-89
2021/07/23 14:49:01;;;;;;;15.93;10.45;;;;;;;;;;5008101;28;20403;-90
2021/07/23 14:51:31;;;;;;;17.77;11.00;;;;;;;;;;5008757;28;20058;-89
2021/07/23 14:54:01;;;;;;;16.65;9.90;;;;;;;;;;5007880;28;20065;-92
2021/07/23 14:56:32;;;;;;;13.73;10.38;;;;;;;;;;5012380;28;20054;-91
2021/07/23 14:59:12;;;;;;;14.85;10.25;;;;;;;;;;5011482;28;20045;-90
2021/07/23 15:01:41;;;;;;;15.02;10.32;;;;;;;;;;5012530;28;20053;-88
2021/07/23 15:04:10;;;;;;;15.40;9.55;;;;;;;;;;5015410;28;20378;-91
2021/07/23 15:06:52;;;;;;;13.77;10.15;;;;;;;;;;5014264;28;20143;-89
2021/07/23 15:09:27;;;;;;;16.65;10.68;;;;;;;;;;5012892;28;20078;-90